createdAt,value
2019-04-06T00:00:42.429Z,-0.84
2019-04-06T00:02:23.349Z,-0.84
2019-04-06T00:04:05.814Z,-0.91
2019-04-06T00:05:45.407Z,-0.95
2019-04-06T00:07:30.057Z,-1.01
2019-04-06T00:09:12.378Z,-1.10
2019-04-06T00:10:55.279Z,-1.17
2019-04-06T00:12:38.231Z,-1.19
2019-04-06T00:14:21.078Z,-1.27
2019-04-06T00:16:03.012Z,-1.16
2019-04-06T00:17:44.657Z,-1.17
2019-04-06T00:19:28.350Z,-1.17
2019-04-06T00:21:12.672Z,-1.11
2019-04-06T00:22:55.597Z,-1.05
2019-04-06T00:24:36.005Z,-1.01
2019-04-06T00:26:39.113Z,-1.01
2019-04-06T00:28:19.688Z,-1.02
2019-04-06T00:30:02.075Z,-1.09
2019-04-06T00:31:55.561Z,-1.19
2019-04-06T00:33:38.034Z,-1.25
2019-04-06T00:35:21.997Z,-1.28
2019-04-06T00:37:03.037Z,-1.21
2019-04-06T00:38:43.898Z,-1.11
2019-04-06T00:40:27.379Z,-1.11
2019-04-06T00:42:07.866Z,-1.11
2019-04-06T00:43:50.778Z,-1.09
2019-04-06T00:45:31.991Z,-1.09
2019-04-06T00:47:12.693Z,-1.09
2019-04-06T00:48:56.505Z,-1.12
2019-04-06T00:50:36.867Z,-1.14
2019-04-06T00:52:19.616Z,-1.22
2019-04-06T00:54:02.751Z,-1.09
2019-04-06T00:55:43.096Z,-1.30
2019-04-06T00:57:25.082Z,-1.37
2019-04-06T00:59:05.293Z,-1.33
2019-04-06T01:00:47.005Z,-1.32
2019-04-06T01:02:28.914Z,-1.32
2019-04-06T01:04:10.843Z,-1.28
2019-04-06T01:05:53.686Z,-1.24
2019-04-06T01:07:34.426Z,-1.24
2019-04-06T01:09:17.504Z,-1.30
2019-04-06T01:10:59.575Z,-1.36
2019-04-06T01:12:36.900Z,-1.46
2019-04-06T01:14:18.648Z,-1.56
2019-04-06T01:16:03.221Z,-1.59
2019-04-06T01:17:44.403Z,-1.55
2019-04-06T01:19:26.727Z,-1.54
2019-04-06T01:21:09.498Z,-1.63
2019-04-06T01:22:49.747Z,-1.67
2019-04-06T01:24:33.228Z,-1.62
2019-04-06T01:26:12.572Z,-1.63
2019-04-06T01:27:51.405Z,-1.56
2019-04-06T01:29:35.037Z,-1.60
2019-04-06T01:31:13.209Z,-1.67
2019-04-06T01:32:53.144Z,-1.67
2019-04-06T01:34:31.790Z,-1.69
2019-04-06T01:36:13.578Z,-1.69
2019-04-06T01:37:54.628Z,-1.72
2019-04-06T01:39:34.749Z,-1.72
2019-04-06T01:41:12.578Z,-1.81
2019-04-06T01:42:51.962Z,-1.86
2019-04-06T01:44:32.032Z,-1.92
2019-04-06T01:46:11.767Z,-1.88
2019-04-06T01:47:51.051Z,-1.93
2019-04-06T01:49:31.715Z,-1.99
2019-04-06T01:51:12.435Z,-1.97
2019-04-06T01:52:51.674Z,-1.91
2019-04-06T01:54:30.961Z,-1.93
2019-04-06T01:56:18.296Z,-1.93
2019-04-06T01:57:51.254Z,-1.98
2019-04-06T01:59:32.824Z,-1.96
2019-04-06T02:01:13.720Z,-1.99
2019-04-06T02:02:54.207Z,-2.07
2019-04-06T02:04:36.173Z,-2.12
2019-04-06T02:06:15.579Z,-2.08
2019-04-06T02:07:57.255Z,-2.10
2019-04-06T02:09:37.588Z,-2.12
2019-04-06T02:11:17.728Z,-2.20
2019-04-06T02:13:01.117Z,-2.26
2019-04-06T02:14:42.275Z,-2.20
2019-04-06T02:16:21.664Z,-2.19
2019-04-06T02:18:02.377Z,-2.23
2019-04-06T02:19:42.691Z,-2.22
2019-04-06T02:21:21.740Z,-2.27
2019-04-06T02:22:59.160Z,-2.40
2019-04-06T02:24:37.545Z,-2.44
2019-04-06T02:26:29.773Z,-2.36
2019-04-06T02:27:59.927Z,-2.32
2019-04-06T02:29:41.746Z,-2.20
2019-04-06T02:31:40.980Z,-2.24
2019-04-06T02:33:33.565Z,-2.28
2019-04-06T02:35:23.198Z,-2.33
2019-04-06T02:37:20.996Z,-2.37
2019-04-06T02:39:01.836Z,-2.39
2019-04-06T02:40:43.944Z,-2.40
2019-04-06T02:42:40.818Z,-2.40
2019-04-06T02:44:19.104Z,-2.40
2019-04-06T02:45:59.807Z,-2.44
2019-04-06T02:47:38.683Z,-2.50
2019-04-06T02:49:16.516Z,-2.49
2019-04-06T02:50:57.797Z,-2.47
2019-04-06T02:52:38.545Z,-2.51
2019-04-06T02:54:18.333Z,-2.46
2019-04-06T02:55:57.733Z,-2.48
2019-04-06T02:57:38.050Z,-2.52
2019-04-06T02:59:17.506Z,-2.59
2019-04-06T03:00:55.729Z,-2.49
2019-04-06T03:02:36.237Z,-2.53
2019-04-06T03:04:16.165Z,-2.55
2019-04-06T03:05:53.900Z,-2.53
2019-04-06T03:07:32.971Z,-2.53
2019-04-06T03:09:11.712Z,-2.59
2019-04-06T03:10:52.615Z,-2.58
2019-04-06T03:12:31.927Z,-2.56
2019-04-06T03:14:10.394Z,-2.57
2019-04-06T03:15:49.653Z,-2.58
2019-04-06T03:17:31.822Z,-2.59
2019-04-06T03:19:12.135Z,-2.59
2019-04-06T03:20:51.077Z,-2.60
2019-04-06T03:22:30.587Z,-2.61
2019-04-06T03:24:08.904Z,-2.59
2019-04-06T03:25:48.083Z,-2.57
2019-04-06T03:27:26.755Z,-2.56
2019-04-06T03:29:05.262Z,-2.47
2019-04-06T03:30:42.646Z,-2.48
2019-04-06T03:32:22.485Z,-2.46
2019-04-06T03:34:00.733Z,-2.43
2019-04-06T03:35:45.932Z,-2.38
2019-04-06T03:37:18.877Z,-2.37
2019-04-06T03:38:56.670Z,-2.34
2019-04-06T03:40:35.712Z,-2.31
2019-04-06T03:42:16.294Z,-2.27
2019-04-06T03:43:54.106Z,-2.28
2019-04-06T03:45:32.087Z,-2.23
2019-04-06T03:47:11.457Z,-2.18
2019-04-06T03:48:52.376Z,-2.12
2019-04-06T03:50:32.787Z,-2.07
2019-04-06T03:52:11.149Z,-2.05
2019-04-06T03:53:50.256Z,-2.01
2019-04-06T03:55:28.109Z,-1.94
2019-04-06T03:57:14.865Z,-1.91
2019-04-06T03:58:52.112Z,-1.88
2019-04-06T04:00:30.590Z,-1.83
2019-04-06T04:02:09.611Z,-1.76
2019-04-06T04:03:48.129Z,-1.69
2019-04-06T04:05:27.730Z,-1.66
2019-04-06T04:07:07.344Z,-1.59
2019-04-06T04:08:48.929Z,-1.55
2019-04-06T04:10:35.298Z,-1.52
2019-04-06T04:12:14.358Z,-1.45
2019-04-06T04:13:53.006Z,-1.36
2019-04-06T04:15:31.227Z,-1.30
2019-04-06T04:17:11.070Z,-1.24
2019-04-06T04:18:52.197Z,-1.14
2019-04-06T04:20:30.773Z,-1.05
2019-04-06T04:22:10.342Z,-0.96
2019-04-06T04:23:48.214Z,-0.90
2019-04-06T04:25:28.380Z,-0.79
2019-04-06T04:27:07.865Z,-0.69
2019-04-06T04:28:48.961Z,-0.58
2019-04-06T04:30:33.350Z,-0.46
2019-04-06T04:32:09.203Z,-0.40
2019-04-06T04:33:50.486Z,-0.29
2019-04-06T04:35:29.739Z,-0.20
2019-04-06T04:37:09.894Z,-0.08
2019-04-06T04:38:50.687Z,0.06
2019-04-06T04:40:28.702Z,0.19
2019-04-06T04:42:08.814Z,0.35
2019-04-06T04:43:46.489Z,0.49
2019-04-06T04:45:26.662Z,0.68
2019-04-06T04:47:13.243Z,0.82
2019-04-06T04:48:54.401Z,0.94
2019-04-06T04:50:33.991Z,1.14
2019-04-06T04:52:14.260Z,1.33
2019-04-06T04:53:53.324Z,1.49
2019-04-06T04:55:36.737Z,1.69
2019-04-06T04:57:16.245Z,1.85
2019-04-06T04:58:58.333Z,2.01
2019-04-06T05:00:41.928Z,2.17
2019-04-06T05:02:21.845Z,2.34
2019-04-06T05:04:03.107Z,2.54
2019-04-06T05:05:45.283Z,2.73
2019-04-06T05:07:31.135Z,2.95
2019-04-06T05:09:16.051Z,3.14
2019-04-06T05:11:04.219Z,3.36
2019-04-06T05:12:43.944Z,3.60
2019-04-06T05:15:04.010Z,3.75
2019-04-06T05:16:46.590Z,3.97
2019-04-06T05:18:27.674Z,4.24
2019-04-06T05:20:09.147Z,4.43
2019-04-06T05:21:49.688Z,4.60
2019-04-06T05:23:31.024Z,4.67
2019-04-06T05:25:11.456Z,4.82
2019-04-06T05:26:51.021Z,5.09
2019-04-06T05:28:30.103Z,5.07
2019-04-06T05:30:10.441Z,5.27
2019-04-06T05:31:49.070Z,5.33
2019-04-06T05:33:28.804Z,5.40
2019-04-06T05:35:07.724Z,5.62
2019-04-06T05:36:49.280Z,5.77
2019-04-06T05:38:29.334Z,5.99
2019-04-06T05:40:09.774Z,6.18
2019-04-06T05:41:50.426Z,6.44
2019-04-06T05:43:30.156Z,6.52
2019-04-06T05:45:16.054Z,6.65
2019-04-06T05:46:58.687Z,6.75
2019-04-06T05:48:37.920Z,6.91
2019-04-06T05:50:17.552Z,7.08
2019-04-06T05:51:55.990Z,7.25
2019-04-06T05:53:40.262Z,7.37
2019-04-06T05:55:18.754Z,7.59
2019-04-06T05:56:58.514Z,7.75
2019-04-06T05:58:39.894Z,7.88
2019-04-06T06:00:20.322Z,8.10
2019-04-06T06:02:01.067Z,8.26
2019-04-06T06:03:41.586Z,8.46
2019-04-06T06:05:19.809Z,8.59
2019-04-06T06:09:08.250Z,9.04
2019-04-06T06:10:48.057Z,9.29
2019-04-06T06:12:27.494Z,9.42
2019-04-06T06:14:10.115Z,9.46
2019-04-06T06:15:53.109Z,9.60
2019-04-06T06:17:32.109Z,9.80
2019-04-06T06:19:13.234Z,9.96
2019-04-06T06:20:59.266Z,10.31
2019-04-06T06:22:39.618Z,10.44
2019-04-06T06:24:20.481Z,10.27
2019-04-06T06:25:59.206Z,10.50
2019-04-06T06:27:39.610Z,10.74
2019-04-06T06:29:20.225Z,10.94
2019-04-06T06:30:58.871Z,11.21
2019-04-06T06:32:39.512Z,11.31
2019-04-06T06:34:18.864Z,11.58
2019-04-06T06:35:58.693Z,11.75
2019-04-06T06:37:37.284Z,11.97
2019-04-06T06:39:18.468Z,12.08
2019-04-06T06:41:00.105Z,12.35
2019-04-06T06:42:38.388Z,12.59
2019-04-06T06:44:18.363Z,12.78
2019-04-06T06:45:57.970Z,12.83
2019-04-06T06:47:38.254Z,12.84
2019-04-06T07:46:34.208Z,16.93
2019-04-06T07:48:12.918Z,16.93
2019-04-06T07:49:51.246Z,16.29
2019-04-06T07:51:30.513Z,16.59
2019-04-06T07:53:08.788Z,17.20
2019-04-06T07:54:48.873Z,17.08
2019-04-06T07:56:28.005Z,17.46
2019-04-06T07:58:07.966Z,17.29
2019-04-06T07:59:49.152Z,17.54
2019-04-06T08:01:34.745Z,17.42
2019-04-06T08:03:15.100Z,18.12
2019-04-06T08:04:55.143Z,17.44
2019-04-06T08:06:34.639Z,17.59
2019-04-06T08:08:16.638Z,17.85
2019-04-06T08:09:55.905Z,18.90
2019-04-06T08:11:33.929Z,19.41
2019-04-06T08:13:11.996Z,19.82
2019-04-06T08:14:53.082Z,19.24
2019-04-06T08:16:45.767Z,19.53
2019-04-06T08:18:45.165Z,19.53
2019-04-06T08:20:45.311Z,19.48
2019-04-06T08:22:43.858Z,19.84
2019-04-06T08:24:42.606Z,20.00
2019-04-06T08:26:43.141Z,19.26
2019-04-06T08:28:41.949Z,20.72
2019-04-06T08:30:45.419Z,20.97
2019-04-06T08:32:22.262Z,19.30
2019-04-06T08:34:01.418Z,19.94
2019-04-06T08:35:43.277Z,20.14
2019-04-06T08:37:22.421Z,19.75
2019-04-06T08:39:01.613Z,21.47
2019-04-06T08:41:03.008Z,21.28
2019-04-06T08:42:44.607Z,20.26
2019-04-06T08:44:45.051Z,21.50
2019-04-06T08:46:30.712Z,22.90
2019-04-06T08:48:16.044Z,23.40
2019-04-06T08:49:54.373Z,23.09
2019-04-06T08:51:33.831Z,22.47
2019-04-06T08:53:13.295Z,22.47
2019-04-06T08:54:54.306Z,22.60
2019-04-06T08:56:34.263Z,23.52
2019-04-06T10:08:01.750Z,25.47
2019-04-06T10:12:06.567Z,23.12
2019-04-06T10:14:06.410Z,21.14
2019-04-06T10:16:07.066Z,22.90
2019-04-06T10:18:06.046Z,23.85
2019-04-06T10:19:55.182Z,23.22
2019-04-06T10:21:59.633Z,23.29
2019-04-06T10:23:49.539Z,22.52
2019-04-06T10:25:51.591Z,24.15
2019-04-06T10:28:03.809Z,25.09
2019-04-06T10:30:21.915Z,25.33
2019-04-06T10:34:12.695Z,23.53
2019-04-06T10:36:11.105Z,22.22
2019-04-06T10:38:13.950Z,21.86
2019-04-06T10:40:21.797Z,20.76
2019-04-06T10:42:06.872Z,21.08
2019-04-06T10:44:10.187Z,20.00
2019-04-06T10:46:02.375Z,20.78
2019-04-06T10:48:04.011Z,21.46
2019-04-06T10:49:53.845Z,21.60
2019-04-06T10:51:53.773Z,21.74
2019-04-06T10:53:36.781Z,23.17
2019-04-06T10:55:43.276Z,24.44
2019-04-06T10:57:23.398Z,24.94
2019-04-06T10:59:22.541Z,24.61
2019-04-06T11:01:09.574Z,22.19
2019-04-06T11:02:53.353Z,23.01
2019-04-06T11:04:33.086Z,21.81
2019-04-06T11:08:31.369Z,21.67
2019-04-06T11:10:10.789Z,21.29
2019-04-06T11:11:52.250Z,22.43
2019-04-06T11:13:44.159Z,20.89
2019-04-06T11:15:44.260Z,21.18
2019-04-06T11:17:34.096Z,21.28
2019-04-06T11:19:14.594Z,20.10
2019-04-06T11:20:59.392Z,21.91
2019-04-06T11:22:42.225Z,20.72
2019-04-06T11:24:42.962Z,20.96
2019-04-06T11:26:28.207Z,21.71
2019-04-06T11:28:17.539Z,22.68
2019-04-06T11:30:16.683Z,22.92
2019-04-06T11:32:09.332Z,22.65
2019-04-06T11:34:09.298Z,22.70
2019-04-06T11:35:55.271Z,21.86
2019-04-06T11:37:43.842Z,21.49
2019-04-06T11:39:42.716Z,21.14
2019-04-06T11:41:26.943Z,21.43
2019-04-06T11:43:23.657Z,20.71
2019-04-06T11:45:04.319Z,21.45
2019-04-06T11:47:06.086Z,22.31
2019-04-06T11:49:04.456Z,24.78
2019-04-06T11:50:49.023Z,24.78
2019-04-06T11:52:44.916Z,23.36
2019-04-06T11:56:54.447Z,21.53
2019-04-06T11:58:50.792Z,21.13
2019-04-06T12:00:53.494Z,21.20
2019-04-06T12:02:38.837Z,20.35
2019-04-06T12:04:37.982Z,20.10
2019-04-06T12:06:21.719Z,19.68
2019-04-06T12:08:23.814Z,20.89
2019-04-06T12:10:18.433Z,21.32
2019-04-06T12:12:08.377Z,21.99
2019-04-06T12:13:55.453Z,22.50
2019-04-06T12:15:46.815Z,20.99
2019-04-06T12:17:43.637Z,22.31
2019-04-06T12:19:42.161Z,22.73
2019-04-06T12:21:28.771Z,23.30
2019-04-06T12:23:12.437Z,23.79
2019-04-06T12:24:56.095Z,23.18
2019-04-06T12:26:38.920Z,23.18
2019-04-06T12:28:24.650Z,22.31
2019-04-06T12:30:15.284Z,21.29
2019-04-06T12:31:59.183Z,20.77
2019-04-06T12:33:47.788Z,20.67
2019-04-06T12:37:37.236Z,21.48
2019-04-06T12:39:17.128Z,22.23
2019-04-06T12:41:08.602Z,22.86
2019-04-06T12:43:04.973Z,23.24
2019-04-06T12:44:46.659Z,22.43
2019-04-06T12:46:35.482Z,21.97
2019-04-06T12:48:16.179Z,22.69
2019-04-06T12:50:05.211Z,22.81
2019-04-06T12:51:53.059Z,22.91
2019-04-06T12:53:58.035Z,23.24
2019-04-06T12:55:46.301Z,23.99
2019-04-06T12:57:46.234Z,22.85
2019-04-06T12:59:30.619Z,22.73
2019-04-06T13:01:15.900Z,23.52
2019-04-06T13:03:17.060Z,22.98
2019-04-06T13:05:03.556Z,22.98
2019-04-06T13:07:01.334Z,23.63
2019-04-06T13:08:50.294Z,22.60
2019-04-06T13:10:32.868Z,23.16
2019-04-06T13:12:27.245Z,24.20
2019-04-06T13:14:12.000Z,25.35
2019-04-06T13:15:55.821Z,24.51
2019-04-06T13:17:36.740Z,22.11
2019-04-06T13:19:34.220Z,23.16
2019-04-06T13:21:25.176Z,23.91
2019-04-06T13:23:17.352Z,24.51
2019-04-06T13:25:00.768Z,25.49
2019-04-06T13:26:44.751Z,23.31
2019-04-06T13:28:41.177Z,22.90
2019-04-06T13:30:38.566Z,22.39
2019-04-06T13:32:36.146Z,22.39
2019-04-06T13:34:33.945Z,23.32
2019-04-06T14:10:16.645Z,23.36
2019-04-06T14:12:15.466Z,24.23
2019-04-06T14:14:14.040Z,24.64
2019-04-06T14:15:54.701Z,24.71
2019-04-06T14:17:58.867Z,24.71
2019-04-06T14:19:50.383Z,24.50
2019-04-06T14:21:32.164Z,23.31
2019-04-06T14:23:28.662Z,23.03
2019-04-06T14:25:14.171Z,22.19
2019-04-06T14:27:12.528Z,21.10
2019-04-06T14:29:02.697Z,21.21
2019-04-06T14:30:59.098Z,20.64
2019-04-06T14:32:52.221Z,20.16
2019-04-06T14:34:50.536Z,21.41
2019-04-06T14:36:46.344Z,20.41
2019-04-06T14:38:41.951Z,21.03
2019-04-06T14:40:42.455Z,21.42
2019-04-06T14:42:23.142Z,21.23
2019-04-06T14:44:15.435Z,21.28
2019-04-06T14:46:00.403Z,21.58
2019-04-06T14:47:44.926Z,21.57
2019-04-06T14:49:33.033Z,20.47
2019-04-06T14:51:14.386Z,20.86
2019-04-06T14:53:11.481Z,19.75
2019-04-06T14:54:52.244Z,19.30
2019-04-06T14:56:50.052Z,20.26
2019-04-06T14:58:44.585Z,20.61
2019-04-06T15:00:34.481Z,20.93
2019-04-06T15:02:19.886Z,20.89
2019-04-06T15:04:00.145Z,20.56
2019-04-06T15:05:52.539Z,21.07
2019-04-06T15:07:34.775Z,21.20
2019-04-06T15:09:24.418Z,20.86
2019-04-06T15:11:27.121Z,21.19
2019-04-06T15:13:14.858Z,21.07
2019-04-06T15:15:12.654Z,21.14
2019-04-06T15:16:53.694Z,20.68
2019-04-06T15:18:42.170Z,20.83
2019-04-06T15:20:21.574Z,20.29
2019-04-06T15:22:14.114Z,20.11
2019-04-06T15:24:06.257Z,20.10
2019-04-06T15:26:04.358Z,19.99
2019-04-06T15:28:05.476Z,19.91
2019-04-06T15:30:04.594Z,19.73
2019-04-06T15:32:03.469Z,19.71
2019-04-06T15:34:00.570Z,19.49
2019-04-06T15:35:56.819Z,18.62
2019-04-06T15:37:39.979Z,18.66
2019-04-06T15:39:19.357Z,18.94
2019-04-06T15:40:59.546Z,18.72
2019-04-06T15:42:40.380Z,18.29
2019-04-06T15:44:40.532Z,18.07
2019-04-06T15:46:24.510Z,17.93
2019-04-06T15:48:20.916Z,17.59
2019-04-06T15:50:10.141Z,17.33
2019-04-06T15:52:11.848Z,17.10
2019-04-06T15:53:50.185Z,16.76
2019-04-06T15:55:35.606Z,16.43
2019-04-06T15:57:30.563Z,16.10
2019-04-06T15:59:14.392Z,15.93
2019-04-06T16:01:10.456Z,15.71
2019-04-06T16:03:01.429Z,15.46
2019-04-06T16:04:40.535Z,15.12
2019-04-06T16:06:38.453Z,14.90
2019-04-06T16:08:17.754Z,14.72
2019-04-06T16:10:03.813Z,14.53
2019-04-06T16:12:00.254Z,14.36
2019-04-06T16:13:49.206Z,14.18
2019-04-06T16:15:29.691Z,13.89
2019-04-06T16:17:11.057Z,13.72
2019-04-06T16:18:52.092Z,13.59
2019-04-06T16:20:38.553Z,13.42
2019-04-06T16:22:18.640Z,13.26
2019-04-06T16:24:03.447Z,13.05
2019-04-06T16:25:56.295Z,12.83
2019-04-06T16:27:43.735Z,12.58
2019-04-06T16:29:29.140Z,12.38
2019-04-06T16:31:10.975Z,12.20
2019-04-06T16:32:51.335Z,12.02
2019-04-06T16:34:33.401Z,11.85
2019-04-06T16:36:24.854Z,11.69
2019-04-06T16:38:17.968Z,11.48
2019-04-06T16:39:58.146Z,11.31
2019-04-06T16:41:52.297Z,11.17
2019-04-06T16:43:35.320Z,11.02
2019-04-06T16:45:26.424Z,10.79
2019-04-06T16:47:19.913Z,10.62
2019-04-06T16:49:00.067Z,10.45
2019-04-06T16:50:44.474Z,10.21
2019-04-06T16:52:23.740Z,10.10
2019-04-06T16:54:22.454Z,9.96
2019-04-06T16:56:01.398Z,9.85
2019-04-06T16:57:41.157Z,9.65
2019-04-06T16:59:41.908Z,9.55
2019-04-06T17:01:38.543Z,9.44
2019-04-06T17:03:18.636Z,9.26
2019-04-06T17:05:15.891Z,9.14
2019-04-06T17:06:58.173Z,9.02
2019-04-06T17:08:46.186Z,8.83
2019-04-06T17:10:27.982Z,8.66
2019-04-06T17:12:24.816Z,8.54
2019-04-06T17:14:08.274Z,8.45
2019-04-06T17:16:11.508Z,8.29
2019-04-06T17:18:00.160Z,8.23
2019-04-06T17:19:48.248Z,8.06
2019-04-06T17:21:27.470Z,7.94
2019-04-06T17:23:07.393Z,7.87
2019-04-06T17:24:59.205Z,7.74
2019-04-06T17:26:38.841Z,7.66
2019-04-06T17:28:21.576Z,7.57
2019-04-06T17:32:00.988Z,7.43
2019-04-06T17:33:46.260Z,7.29
2019-04-06T17:35:34.622Z,7.20
2019-04-06T17:37:20.817Z,7.12
2019-04-06T17:39:05.564Z,7.04
2019-04-06T17:41:04.667Z,6.95
2019-04-06T17:42:48.827Z,6.87
2019-04-06T17:44:30.006Z,6.77
2019-04-06T17:46:19.327Z,6.74
2019-04-06T17:48:01.231Z,6.66
2019-04-06T17:49:59.954Z,6.60
2019-04-06T17:52:07.500Z,6.51
2019-04-06T17:54:06.235Z,6.40
2019-04-06T17:56:06.298Z,6.38
2019-04-06T17:58:04.735Z,6.29
2019-04-06T17:59:48.739Z,6.21
2019-04-06T18:01:42.957Z,6.12
2019-04-06T18:03:34.999Z,6.10
2019-04-06T18:05:26.096Z,5.99
2019-04-06T18:07:26.550Z,5.96
2019-04-06T18:09:19.111Z,5.92
2019-04-06T18:11:01.097Z,5.87
2019-04-06T18:12:57.859Z,5.81
2019-04-06T18:14:38.690Z,5.76
2019-04-06T18:16:21.103Z,5.70
2019-04-06T18:18:01.441Z,5.66
2019-04-06T18:19:40.692Z,5.64
2019-04-06T18:21:19.947Z,5.61
2019-04-06T18:22:59.232Z,5.55
2019-04-06T18:24:39.004Z,5.51
2019-04-06T18:26:19.085Z,5.47
2019-04-06T18:27:58.583Z,5.48
2019-04-06T18:29:38.843Z,5.44
2019-04-06T18:31:24.937Z,5.44
2019-04-06T18:33:07.246Z,5.38
2019-04-06T18:34:48.079Z,5.37
2019-04-06T18:36:31.345Z,5.33
2019-04-06T18:38:13.582Z,5.27
2019-04-06T18:39:53.561Z,5.25
2019-04-06T18:41:33.609Z,5.20
2019-04-06T18:43:11.425Z,5.17
2019-04-06T18:44:55.498Z,5.12
2019-04-06T18:46:35.674Z,5.12
2019-04-06T18:48:18.130Z,5.06
2019-04-06T18:49:59.142Z,5.02
2019-04-06T18:51:38.595Z,5.03
2019-04-06T18:53:19.729Z,4.99
2019-04-06T18:55:01.060Z,4.97
2019-04-06T18:56:40.154Z,4.95
2019-04-06T18:58:18.945Z,4.96
2019-04-06T19:00:01.031Z,4.89
2019-04-06T19:01:42.660Z,4.88
2019-04-06T19:03:25.443Z,4.86
2019-04-06T19:05:10.186Z,4.83
2019-04-06T19:06:48.911Z,4.82
2019-04-06T19:08:35.881Z,4.78
2019-04-06T19:10:21.407Z,4.80
2019-04-06T19:12:02.065Z,4.77
2019-04-06T19:15:43.190Z,4.73
2019-04-06T19:17:23.556Z,4.71
2019-04-06T19:19:03.873Z,4.65
2019-04-06T19:20:42.625Z,4.61
2019-04-06T19:22:22.843Z,4.60
2019-04-06T19:24:02.421Z,4.57
2019-04-06T19:25:40.162Z,4.57
2019-04-06T19:27:20.497Z,4.53
2019-04-06T19:28:59.361Z,4.51
2019-04-06T19:30:37.390Z,4.50
2019-04-06T19:32:15.186Z,4.45
2019-04-06T19:33:53.471Z,4.46
2019-04-06T19:35:36.808Z,4.42
2019-04-06T19:37:16.287Z,4.38
2019-04-06T19:38:56.291Z,4.35
2019-04-06T19:40:37.180Z,4.35
2019-04-06T19:42:18.202Z,4.32
2019-04-06T19:43:58.211Z,4.27
2019-04-06T19:45:37.183Z,4.21
2019-04-06T19:47:17.123Z,4.19
2019-04-06T19:48:55.589Z,4.17
2019-04-06T19:50:35.338Z,4.11
2019-04-06T19:52:15.315Z,4.04
2019-04-06T19:53:53.619Z,4.01
2019-04-06T19:55:33.962Z,3.99
2019-04-06T19:57:13.579Z,3.97
2019-04-06T19:58:51.495Z,3.97
2019-04-06T20:00:33.751Z,3.93
2019-04-06T20:02:17.241Z,3.87
2019-04-06T20:04:00.162Z,3.86
2019-04-06T20:05:41.140Z,3.83
2019-04-06T20:07:22.886Z,3.84
2019-04-06T20:09:03.064Z,3.87
2019-04-06T20:10:44.189Z,3.80
2019-04-06T20:12:22.815Z,3.80
2019-04-06T20:14:02.763Z,3.75
2019-04-06T20:15:42.698Z,3.78
2019-04-06T20:17:21.000Z,3.77
2019-04-06T20:19:00.039Z,3.78
2019-04-06T20:20:38.869Z,3.77
2019-04-06T20:22:16.535Z,3.73
2019-04-06T20:23:54.351Z,3.73
2019-04-06T20:25:32.949Z,3.68
2019-04-06T20:27:12.520Z,3.62
2019-04-06T20:28:51.163Z,3.63
2019-04-06T20:30:29.768Z,3.61
2019-04-06T20:32:08.757Z,3.57
2019-04-06T20:33:53.384Z,3.56
2019-04-06T20:35:30.767Z,3.56
2019-04-06T20:37:09.686Z,3.54
2019-04-06T20:38:48.892Z,3.56
2019-04-06T20:40:29.851Z,3.57
2019-04-06T20:42:09.113Z,3.53
2019-04-06T20:43:50.025Z,3.56
2019-04-06T20:45:30.133Z,3.55
2019-04-06T20:47:09.396Z,3.53
2019-04-06T20:48:49.075Z,3.55
2019-04-06T20:50:29.904Z,3.60
2019-04-06T20:52:10.650Z,3.63
2019-04-06T20:53:50.876Z,3.64
2019-04-06T20:55:29.873Z,3.69
2019-04-06T20:57:09.667Z,3.74
2019-04-06T20:58:49.160Z,3.80
2019-04-06T21:00:28.803Z,3.89
2019-04-06T21:02:08.154Z,4.01
2019-04-06T21:03:59.264Z,4.11
2019-04-06T21:05:28.886Z,4.26
2019-04-06T21:07:08.985Z,4.44
2019-04-06T21:08:51.006Z,4.64
2019-04-06T21:10:31.590Z,4.81
2019-04-06T21:12:10.690Z,4.99
2019-04-06T21:13:50.300Z,5.18
2019-04-06T21:15:29.343Z,5.39
2019-04-06T21:17:09.296Z,5.61
2019-04-06T21:18:48.126Z,5.77
2019-04-06T21:20:27.763Z,5.96
2019-04-06T21:22:07.200Z,6.11
2019-04-06T21:23:47.176Z,6.29
2019-04-06T21:25:26.356Z,6.57
2019-04-06T21:27:06.297Z,6.68
2019-04-06T21:28:45.392Z,6.84
2019-04-06T21:30:24.513Z,6.89
2019-04-06T21:32:05.043Z,6.86
2019-04-06T21:33:46.301Z,6.93
2019-04-06T21:35:25.019Z,6.95
2019-04-06T21:37:04.185Z,7.00
2019-04-06T21:38:43.428Z,7.04
2019-04-06T21:40:23.036Z,7.11
2019-04-06T21:42:03.292Z,7.08
2019-04-06T21:43:43.794Z,7.08
2019-04-06T21:45:23.534Z,7.09
2019-04-06T21:47:03.327Z,7.10
2019-04-06T21:48:43.598Z,7.10
2019-04-06T21:50:22.073Z,7.19
2019-04-06T21:52:00.990Z,7.26
2019-04-06T21:53:41.153Z,7.25
2019-04-06T21:55:20.804Z,7.21
2019-04-06T21:57:00.358Z,7.22
2019-04-06T21:58:42.477Z,7.25
2019-04-06T22:00:24.353Z,7.31
2019-04-06T22:02:06.059Z,7.41
2019-04-06T22:03:46.202Z,7.41
2019-04-06T22:05:28.321Z,7.45
2019-04-06T22:07:08.741Z,7.46
2019-04-06T22:08:48.243Z,7.65
2019-04-06T22:10:31.511Z,7.72
2019-04-06T22:12:11.552Z,7.67
2019-04-06T22:13:51.307Z,7.77
2019-04-06T22:15:29.465Z,7.80
2019-04-06T22:17:10.877Z,7.74
2019-04-06T22:18:50.983Z,7.89
2019-04-06T22:20:29.662Z,7.89
2019-04-06T22:22:07.989Z,7.88
2019-04-06T22:23:47.704Z,7.91
2019-04-06T22:25:27.817Z,7.91
2019-04-06T22:27:07.645Z,7.82
2019-04-06T22:28:47.233Z,7.83
2019-04-06T22:30:26.837Z,7.80
2019-04-06T22:32:07.535Z,7.79
2019-04-06T22:33:48.403Z,7.73
2019-04-06T22:35:28.349Z,7.64
2019-04-06T22:37:07.477Z,7.65
2019-04-06T22:38:48.150Z,7.76
2019-04-06T22:40:26.696Z,7.66
2019-04-06T22:42:06.405Z,7.68
2019-04-06T22:43:46.837Z,7.54
2019-04-06T22:45:28.301Z,7.61
2019-04-06T22:47:08.143Z,7.53
2019-04-06T22:48:47.238Z,7.41
2019-04-06T22:50:27.068Z,7.39
2019-04-06T22:52:07.914Z,7.34
2019-04-06T22:53:47.700Z,7.34
2019-04-06T22:55:27.094Z,7.32
2019-04-06T22:57:06.996Z,7.27
2019-04-06T22:58:46.314Z,7.28
2019-04-06T23:00:27.488Z,7.25
2019-04-06T23:02:07.882Z,7.20
2019-04-06T23:03:57.148Z,7.23
2019-04-06T23:05:49.788Z,7.19
2019-04-06T23:07:29.234Z,7.23
2019-04-06T23:09:10.070Z,7.26
2019-04-06T23:10:50.371Z,7.17
2019-04-06T23:12:29.823Z,7.14
2019-04-06T23:14:10.061Z,7.10
2019-04-06T23:15:49.761Z,7.03
2019-04-06T23:17:29.582Z,7.03
2019-04-06T23:19:09.640Z,7.00
2019-04-06T23:20:48.584Z,6.96
2019-04-06T23:22:27.585Z,6.94
2019-04-06T23:24:06.681Z,6.91
2019-04-06T23:25:49.294Z,6.85
2019-04-06T23:27:28.552Z,6.84
2019-04-06T23:29:07.706Z,6.79
2019-04-06T23:30:48.003Z,6.79
2019-04-06T23:32:27.565Z,6.84
2019-04-06T23:34:07.893Z,6.78
2019-04-06T23:35:47.847Z,6.79
2019-04-06T23:37:27.570Z,6.77
2019-04-06T23:39:08.063Z,6.76
2019-04-06T23:40:49.733Z,6.71
2019-04-06T23:42:28.279Z,6.66
2019-04-06T23:44:08.279Z,6.64
2019-04-06T23:45:47.530Z,6.62
2019-04-06T23:47:25.731Z,6.55
2019-04-06T23:49:05.455Z,6.53
2019-04-06T23:50:45.140Z,6.52
2019-04-06T23:52:25.345Z,6.54
2019-04-06T23:54:05.509Z,6.48
2019-04-06T23:55:45.629Z,6.43
2019-04-06T23:57:25.790Z,6.38
2019-04-06T23:59:06.568Z,6.38
